Nearby METAR Reports

 

KBED - Bedford, Massachusetts, USA
Distance from station: W 5mi, 9km
Updated: Sat, 24-Aug-2019 9:56pm EDT
Clear
Clear
 Wind from calm
Wind: Calm
Temperature: 61°F , 16°C
Dew Point: 54°F , 12°C
Humidity: 77%
Barometer: 1025.4 hPa
Clouds: Clear
Visibility: 10 miles , 16 km
2019/08/25 01:56 KBED 250156Z 00000KT 10SM CLR 16/12 A3028 RMK AO2 SLP266 T01610122
KBOS - Boston, Massachusetts, USA
Distance from station: SE 11mi, 18km
Updated: Sat, 24-Aug-2019 9:54pm EDT
Few Clouds
Few Clouds
 Wind from E
Wind: E 5 mph , 7 km/h
Temperature: 66°F , 19°C
Dew Point: 57°F , 14°C
Humidity: 73%
Barometer: 1025.4 hPa
Clouds: Few Clouds
Visibility: 10 miles , 16 km
Cloud details: Few Clouds 2500 ft
2019/08/25 01:54 KBOS 250154Z 08004KT 10SM FEW025 19/14 A3028 RMK AO2 SLP254 T01890144
 
KBVY - Beverly, Massachusetts, USA
Distance from station: ENE 17mi, 27km
Updated: Sat, 24-Aug-2019 9:53pm EDT
Clear
Clear
 Wind from calm
Wind: Calm
Temperature: 57°F , 14°C
Dew Point: 54°F , 12°C
Humidity: 88%
Barometer: 1025.4 hPa
Clouds: Clear
Visibility: 10 miles , 16 km
2019/08/25 01:53 KBVY 250153Z AUTO 00000KT 10SM CLR 14/12 A3028 RMK AO2 SLP250 T01390122 $
KMQE - East Milton, Massachusetts, USA
Distance from station: SSE 17mi, 28km
Updated: Sat, 24-Aug-2019 9:56pm EDT

 Wind from ENE
Wind: ENE 9 mph , 15 km/h
Temperature: 61°F , 16°C
Dew Point: 55°F , 13°C
Humidity: 83%
Barometer: 1025.4 hPa
2019/08/25 01:56 KMQE 250156Z AUTO 07008KT 16/13 A3028 RMK AO1 SLP262 T01560133
 
KLWM - Lawrence, Massachusetts, USA
Distance from station: N 18mi, 29km
Updated: Sat, 24-Aug-2019 9:54pm EDT
Clear
Clear
 Wind from calm
Wind: Calm
Temperature: 61°F , 16°C
Dew Point: 55°F , 13°C
Humidity: 83%
Barometer: 1026.4 hPa
Clouds: Clear
Visibility: 10 miles , 16 km
2019/08/25 01:54 KLWM 250154Z 00000KT 10SM CLR 16/13 A3031 RMK AO2 SLP264 T01610133
KOWD - Norwood, Massachusetts, USA
Distance from station: S 19mi, 31km
Updated: Sat, 24-Aug-2019 9:53pm EDT
Clear
Clear
 Wind from calm
Wind: Calm
Temperature: 61°F , 16°C
Dew Point: 54°F , 12°C
Humidity: 77%
Barometer: 1025.4 hPa
Clouds: Clear
Visibility: 10 miles , 16 km
2019/08/25 01:53 KOWD 250153Z 00000KT 10SM CLR 16/12 A3028 RMK AO2 SLP253 T01560122
 
KASH - Nashua/Boire Fld, New Hampshire, USA
Distance from station: NW 28mi, 45km
Updated: Sat, 24-Aug-2019 9:56pm EDT
Few Clouds
Few Clouds
 Wind from calm
Wind: Calm
Temperature: 61°F , 16°C
Dew Point: 57°F , 14°C
Humidity: 88%
Barometer: 1026.4 hPa
Clouds: Few Clouds
Visibility: 10 miles , 16 km
Cloud details: Few Clouds 5500 ft
2019/08/25 01:56 KASH 250156Z AUTO 00000KT 10SM FEW055 16/14 A3031 RMK AO2 SLP267 T01560144
KFIT - Fitchburg, Massachusetts, USA
Distance from station: WNW 29mi, 47km
Updated: Sat, 24-Aug-2019 9:52pm EDT
Mostly cloudy
Mostly cloudy
 Wind from calm
Wind: Calm
Temperature: 64°F , 18°C
Dew Point: 54°F , 12°C
Humidity: 68%
Barometer: 1026.4 hPa
Clouds: Mostly cloudy
Visibility: 10 miles , 16 km
Cloud details: Mostly cloudy 4900 ft
2019/08/25 01:52 KFIT 250152Z AUTO 00000KT 10SM BKN049 18/12 A3031 RMK AO2 SLP263 T01780122
 
KMHT - Manchester, New Hampshire, USA
Distance from station: NNW 35mi, 56km
Updated: Sat, 24-Aug-2019 9:53pm EDT
Few Clouds
Few Clouds
 Wind from NNE
Wind: NNE 3 mph , 6 km/h
Temperature: 64°F , 18°C
Dew Point: 55°F , 13°C
Humidity: 73%
Barometer: 1025.7 hPa
Clouds: Few Clouds
Visibility: 10 miles , 16 km
Cloud details: Few Clouds 6000 ft
2019/08/25 01:53 KMHT 250153Z 03003KT 10SM FEW060 18/13 A3029 RMK AO2 SLP267 T01780133 $
KGHG - Marshfield, Massachusetts, USA
Distance from station: SE 37mi, 59km
Updated: Sat, 24-Aug-2019 10:15pm EDT
Clear
Clear
 Wind from ENE
Wind: ENE 9 mph , 15 km/h
Temperature: 68°F , 20°C
Dew Point: 59°F , 15°C
Humidity: 73%
Barometer: 1025.4 hPa
Clouds: Clear
Visibility: 10 miles , 16 km
2019/08/25 02:15 KGHG 250215Z AUTO 06008KT 10SM CLR 20/15 A3028 RMK AO2
 
KORH - Worcester, Massachusetts, USA
Distance from station: WSW 37mi, 59km
Updated: Sat, 24-Aug-2019 9:54pm EDT
Partly cloudy
Partly cloudy
 Wind from E
Wind: E 3 mph , 6 km/h
Temperature: 61°F , 16°C
Dew Point: 54°F , 12°C
Humidity: 77%
Barometer: 1026.4 hPa
Clouds: Partly cloudy
Visibility: 10 miles , 16 km
Cloud details: Partly cloudy 3800 ft
2019/08/25 01:54 KORH 250154Z 09003KT 10SM SCT038 16/12 A3031 RMK AO2 SLP262 T01560122
KSFZ - Pawtucket, Rhode Island, USA
Distance from station: SSW 41mi, 65km
Updated: Sat, 24-Aug-2019 9:56pm EDT
Clear
Clear
 Wind from calm
Wind: Calm
Temperature: 55°F , 13°C
Dew Point: 54°F , 12°C
Humidity: 94%
Barometer: 1025.7 hPa
Clouds: Clear
Visibility: 10 miles , 16 km
2019/08/25 01:56 KSFZ 250156Z AUTO 00000KT 10SM CLR 13/12 A3029 RMK AO2 SLP204 T01330122
 
KTAN - Taunton, Massachusetts, USA
Distance from station: SSE 41mi, 66km
Updated: Sat, 24-Aug-2019 9:52pm EDT
Clear
Clear
 Wind from calm
Wind: Calm
Temperature: 57°F , 14°C
Dew Point: 54°F , 12°C
Humidity: 88%
Barometer: 1025.1 hPa
Clouds: Clear
Visibility: 10 miles , 16 km
2019/08/25 01:52 KTAN 250152Z AUTO 00000KT 10SM CLR 14/12 A3027 RMK AO2 SLP249 T01390122
KPYM - Plymouth, Massachusetts, USA
Distance from station: SSE 44mi, 71km
Updated: Sat, 24-Aug-2019 9:52pm EDT
Clear
Clear
 Wind from ENE
Wind: ENE 7 mph , 11 km/h
Temperature: 63°F , 17°C
Dew Point: 55°F , 13°C
Humidity: 77%
Barometer: 1025.1 hPa
Clouds: Clear
Visibility: 10 miles , 16 km
2019/08/25 01:52 KPYM 250152Z AUTO 06006KT 10SM CLR 17/13 A3027 RMK AO2 SLP250 T01720133
 
KPSM - Portsmouth/Pease, New Hampshire, USA
Distance from station: NNE 46mi, 74km
Updated: Sat, 24-Aug-2019 9:56pm EDT
Mostly cloudy
Mostly cloudy
 Wind from NW
Wind: NW 3 mph , 6 km/h
Temperature: 63°F , 17°C
Dew Point: 57°F , 14°C
Humidity: 83%
Barometer: 1025.4 hPa
Clouds: Mostly cloudy
Visibility: 10 miles , 16 km
Cloud details: Mostly cloudy 5500 ft
2019/08/25 01:56 KPSM 250156Z 32003KT 10SM BKN055 17/14 A3028 RMK AO2A SLP256 T01740135
KAFN - Jaffrey, New Hampshire, USA
Distance from station: WNW 47mi, 76km
Updated: Sat, 24-Aug-2019 9:52pm EDT
Overcast
Overcast
 Wind from calm
Wind: Calm
Temperature: 63°F , 17°C
Dew Point: 54°F , 12°C
Humidity: 73%
Barometer: 1026.8 hPa
Clouds: Overcast
Visibility: 10 miles , 16 km
Cloud details: Mostly cloudy 3800 ft
Overcast 6000 ft
2019/08/25 01:52 KAFN 250152Z AUTO 00000KT 10SM BKN038 OVC060 17/12 A3032 RMK AO2 SLP271 T01670122